Time;durP1;ratioP1;P1;durP2;ratioP2;P2;SDS_P1;SDS_P2;PMS_P1;PMS_P2;Temp;Humidity;BMP_temperature;BMP_pressure;BME280_temperature;BME280_humidity;BME280_pressure;Samples;Min_cycle;Max_cycle;Signal;HPM_P1;HPM_P2
2023/05/11 00:01:37;;;;;;;;;;;;;;;20.79;63.49;100734.58;2247571;79;50658;-72
2023/05/11 00:04:38;;;;;;;;;;;;;;;20.80;63.44;100737.05;2251516;78;51039;-73
2023/05/11 00:07:40;;;;;;;;;;;;;;;20.80;63.43;100738.40;2249868;79;51597;-73
2023/05/11 00:10:42;;;;;;;;;;;;;;;20.80;63.47;100732.20;2250154;79;51507;-73
2023/05/11 00:13:43;;;;;;;;;;;;;;;20.80;63.46;100726.30;2250051;79;51535;-72
2023/05/11 00:16:45;;;;;;;;;;;;;;;20.80;63.54;100726.81;2249722;79;52328;-73
2023/05/11 00:19:47;;;;;;;;;;;;;;;20.82;63.41;100724.77;2235320;79;51329;-73
2023/05/11 00:22:48;;;;;;;;;;;;;;;20.81;63.54;100719.09;2246769;79;51501;-72
2023/05/11 00:25:50;;;;;;;;;;;;;;;20.82;63.49;100726.94;2246261;79;50783;-73
2023/05/11 00:28:52;;;;;;;;;;;;;;;20.85;63.43;100723.85;2249995;79;51029;-73
2023/05/11 00:31:53;;;;;;;;;;;;;;;20.85;63.41;100721.16;2228076;79;51467;-71
2023/05/11 00:34:55;;;;;;;;;;;;;;;20.89;63.36;100729.69;2246856;79;50330;-70
2023/05/11 00:37:56;;;;;;;;;;;;;;;20.90;63.37;100727.83;2228238;79;50415;-72
2023/05/11 00:40:58;;;;;;;;;;;;;;;20.90;63.38;100730.00;2250743;79;49590;-72
2023/05/11 00:43:59;;;;;;;;;;;;;;;20.91;63.31;100723.61;2246894;79;50422;-71
2023/05/11 00:47:01;;;;;;;;;;;;;;;20.91;63.31;100727.64;2228182;79;50282;-72
2023/05/11 00:50:03;;;;;;;;;;;;;;;20.91;63.36;100730.33;2240356;78;51549;-72
2023/05/11 00:53:05;;;;;;;;;;;;;;;20.91;63.38;100729.47;2186499;80;52360;-72
2023/05/11 00:56:06;;;;;;;;;;;;;;;20.90;63.26;100725.95;2209606;79;51402;-69
2023/05/11 00:59:08;;;;;;;;;;;;;;;20.92;63.25;100729.29;2234098;79;50643;-72
2023/05/11 01:02:10;;;;;;;;;;;;;;;20.89;63.35;100729.69;2203175;80;50246;-72
2023/05/11 01:05:11;;;;;;;;;;;;;;;20.91;63.25;100730.33;2234266;79;49588;-72
2023/05/11 01:08:21;;;;;;;;;;;;;;;20.91;63.39;100728.98;2202788;79;50783;-72
2023/05/11 01:11:26;;;;;;;;;;;;;;;20.91;63.43;100726.78;2248993;78;51517;-72
2023/05/11 01:14:30;;;;;;;;;;;;;;;20.92;63.22;100734.67;2249148;79;50339;-72
2023/05/11 01:17:35;;;;;;;;;;;;;;;20.91;63.32;100734.36;2224568;79;49657;-73
2023/05/11 01:20:38;;;;;;;;;;;;;;;20.91;63.19;100729.47;2282280;77;49942;-73
2023/05/11 01:23:44;;;;;;;;;;;;;;;20.90;63.33;100737.23;2298422;77;51554;-72
2023/05/11 01:26:53;;;;;;;;;;;;;;;20.90;63.35;100736.72;2275864;77;50558;-72
2023/05/11 01:30:12;;;;;;;;;;;;;;;20.89;63.35;100748.52;2243395;78;51014;-73
2023/05/11 01:33:14;;;;;;;;;;;;;;;20.87;63.42;100746.01;2268732;78;50122;-73
2023/05/11 01:36:15;;;;;;;;;;;;;;;20.87;63.47;100745.19;2268167;78;50465;-71
2023/05/11 01:39:18;;;;;;;;;;;;;;;20.87;63.35;100745.19;2268000;78;51539;-72
2023/05/11 01:42:21;;;;;;;;;;;;;;;20.86;63.43;100751.60;2267721;78;52562;-71
2023/05/11 01:45:22;;;;;;;;;;;;;;;20.86;63.42;100748.91;2268634;78;50276;-72
2023/05/11 01:48:24;;;;;;;;;;;;;;;20.89;63.27;100751.20;2243178;78;51533;-73
2023/05/11 01:51:27;;;;;;;;;;;;;;;20.90;63.24;100755.55;2217358;78;50714;-72
2023/05/11 01:54:30;;;;;;;;;;;;;;;20.91;63.12;100758.58;2224685;78;51535;-72
2023/05/11 01:57:31;;;;;;;;;;;;;;;20.91;63.28;100755.03;2220337;78;50412;-72
2023/05/11 02:00:33;;;;;;;;;;;;;;;20.88;63.30;100754.91;2213939;80;51529;-72
2023/05/11 02:03:35;;;;;;;;;;;;;;;20.87;63.41;100758.11;2213909;79;50646;-72
2023/05/11 02:06:37;;;;;;;;;;;;;;;20.87;63.43;100755.94;2228526;79;51738;-72
2023/05/11 02:09:39;;;;;;;;;;;;;;;20.88;63.23;100757.59;2224330;78;50349;-72
2023/05/11 02:12:40;;;;;;;;;;;;;;;20.88;63.35;100756.25;2225091;78;51453;-74
2023/05/11 02:15:42;;;;;;;;;;;;;;;20.90;63.07;100756.89;2214239;80;50275;-72
2023/05/11 02:18:43;;;;;;;;;;;;;;;20.89;63.12;100766.00;2225635;79;51119;-74
2023/05/11 02:21:45;;;;;;;;;;;;;;;20.90;63.17;100767.65;2217015;79;50276;-74
2023/05/11 02:24:47;;;;;;;;;;;;;;;20.88;63.27;100773.24;2223815;80;51475;-72
2023/05/11 02:27:48;;;;;;;;;;;;;;;20.90;63.22;100771.69;2250046;78;51482;-74
2023/05/11 02:30:50;;;;;;;;;;;;;;;20.90;63.07;100771.69;2251931;78;51024;-74
2023/05/11 02:33:52;;;;;;;;;;;;;;;20.88;63.27;100770.55;2250161;79;51647;-73
2023/05/11 02:36:54;;;;;;;;;;;;;;;20.90;63.14;100769.00;2249741;79;51631;-74
2023/05/11 02:39:57;;;;;;;;;;;;;;;20.90;63.12;100773.55;2250115;79;50789;-74
2023/05/11 02:43:00;;;;;;;;;;;;;;;20.91;63.07;100780.58;2227107;79;51750;-72
2023/05/11 02:46:02;;;;;;;;;;;;;;;20.91;63.01;100771.16;2249950;78;50781;-72
2023/05/11 02:49:05;;;;;;;;;;;;;;;20.88;63.16;100780.45;2249745;79;50290;-72
2023/05/11 02:52:07;;;;;;;;;;;;;;;20.88;63.23;100783.14;2252266;79;50774;-72
2023/05/11 02:55:08;;;;;;;;;;;;;;;20.87;63.17;100775.59;2242179;79;51333;-72
2023/05/11 02:58:10;;;;;;;;;;;;;;;20.88;63.23;100776.42;2249794;79;50702;-72
2023/05/11 03:01:11;;;;;;;;;;;;;;;20.88;63.12;100774.59;2250232;78;51452;-72
2023/05/11 03:04:13;;;;;;;;;;;;;;;20.88;63.14;100775.08;2250062;79;50749;-72
2023/05/11 03:07:15;;;;;;;;;;;;;;;20.88;63.15;100777.77;2241282;79;49617;-72
2023/05/11 03:10:17;;;;;;;;;;;;;;;20.89;63.05;100774.06;2250048;78;51493;-71
2023/05/11 03:13:19;;;;;;;;;;;;;;;20.88;63.07;100774.59;2247757;79;50447;-72
2023/05/11 03:16:20;;;;;;;;;;;;;;;20.88;63.04;100775.94;2250007;78;51611;-72
2023/05/11 03:19:22;;;;;;;;;;;;;;;20.92;62.91;100781.73;2239670;79;52480;-72
2023/05/11 03:22:23;;;;;;;;;;;;;;;20.91;62.92;100784.12;2249810;79;50726;-72
2023/05/11 03:25:25;;;;;;;;;;;;;;;20.91;62.85;100776.55;2257623;79;51467;-71
2023/05/11 03:28:27;;;;;;;;;;;;;;;20.92;62.81;100775.02;2222519;79;51638;-72
2023/05/11 03:31:29;;;;;;;;;;;;;;;20.89;63.00;100782.14;2249995;79;49649;-72
2023/05/11 03:34:30;;;;;;;;;;;;;;;20.88;63.00;100776.42;2257498;79;51537;-72
2023/05/11 03:37:32;;;;;;;;;;;;;;;20.90;62.90;100775.72;2222465;79;50235;-72
2023/05/11 03:40:33;;;;;;;;;;;;;;;20.90;62.92;100783.78;2257599;79;50356;-72
2023/05/11 03:43:35;;;;;;;;;;;;;;;20.89;62.89;100784.83;2249942;78;51944;-73
2023/05/11 03:46:38;;;;;;;;;;;;;;;20.89;62.89;100780.80;2257301;79;50638;-72
2023/05/11 03:49:40;;;;;;;;;;;;;;;20.89;62.96;100780.80;2252411;79;51506;-72
2023/05/11 03:52:42;;;;;;;;;;;;;;;20.89;62.88;100782.14;2250062;79;51587;-72
2023/05/11 03:55:43;;;;;;;;;;;;;;;20.87;62.86;100786.88;2251833;78;50991;-72
2023/05/11 03:58:45;;;;;;;;;;;;;;;20.87;62.97;100784.19;2249798;79;51580;-72
2023/05/11 04:01:46;;;;;;;;;;;;;;;20.88;62.94;100781.80;2250037;78;50406;-72
2023/05/11 04:04:48;;;;;;;;;;;;;;;20.91;62.83;100779.23;2249986;79;51521;-72
2023/05/11 04:07:50;;;;;;;;;;;;;;;20.88;62.92;100779.97;2229654;79;50842;-72
2023/05/11 04:10:52;;;;;;;;;;;;;;;20.92;62.73;100779.05;2249984;78;51614;-72
2023/05/11 04:13:54;;;;;;;;;;;;;;;20.93;62.67;100778.02;2250047;79;51561;-72
2023/05/11 04:16:55;;;;;;;;;;;;;;;20.93;62.66;100782.56;2247277;79;51564;-73
2023/05/11 04:19:57;;;;;;;;;;;;;;;20.93;62.62;100781.22;2237167;77;50061;-73
2023/05/11 04:22:58;;;;;;;;;;;;;;;20.91;62.80;100781.44;2246953;79;51555;-72
2023/05/11 04:26:00;;;;;;;;;;;;;;;20.89;62.84;100782.14;2223290;79;51454;-72
2023/05/11 04:29:02;;;;;;;;;;;;;;;20.88;62.90;100796.10;2249866;79;51553;-72
2023/05/11 04:32:04;;;;;;;;;;;;;;;20.89;62.90;100794.24;2200519;78;51711;-70
2023/05/11 04:35:06;;;;;;;;;;;;;;;20.90;62.85;100787.83;2223527;79;50410;-70
2023/05/11 04:38:07;;;;;;;;;;;;;;;20.92;62.77;100793.84;2223656;79;50217;-71
2023/05/11 04:41:09;;;;;;;;;;;;;;;20.93;62.93;100790.64;2250007;79;50221;-71
2023/05/11 04:44:10;;;;;;;;;;;;;;;20.91;63.05;100790.85;2252883;78;49543;-71
2023/05/11 04:47:12;;;;;;;;;;;;;;;20.94;63.52;100802.56;2222020;79;49651;-71
2023/05/11 04:50:13;;;;;;;;;;;;;;;20.96;63.61;100801.86;2251416;79;51530;-70
2023/05/11 04:53:15;;;;;;;;;;;;;;;20.95;64.10;100802.04;2254336;78;51522;-71
2023/05/11 04:56:17;;;;;;;;;;;;;;;20.96;63.68;100807.72;2200220;79;53854;-71
2023/05/11 04:59:18;;;;;;;;;;;;;;;20.96;63.10;100806.37;2250237;79;50796;-70
2023/05/11 05:02:20;;;;;;;;;;;;;;;20.99;63.13;100810.02;2237263;79;51668;-70
2023/05/11 05:05:21;;;;;;;;;;;;;;;21.04;61.92;100812.95;2238510;78;51531;-69
2023/05/11 05:08:23;;;;;;;;;;;;;;;21.02;62.13;100809.13;2248600;78;52356;-71
2023/05/11 05:11:25;;;;;;;;;;;;;;;21.08;62.14;100816.41;2214115;79;51422;-71
2023/05/11 05:14:26;;;;;;;;;;;;;;;21.17;62.00;100812.22;2235648;79;50236;-71
2023/05/11 05:17:28;;;;;;;;;;;;;;;21.25;61.85;100814.27;2232567;79;50247;-71
2023/05/11 05:20:29;;;;;;;;;;;;;;;21.32;61.64;100819.67;2239526;78;49543;-72
2023/05/11 05:23:31;;;;;;;;;;;;;;;21.39;61.54;100817.07;2223578;78;50715;-71
2023/05/11 05:26:32;;;;;;;;;;;;;;;21.41;61.27;100821.23;2234747;79;51292;-72
2023/05/11 05:29:34;;;;;;;;;;;;;;;21.46;61.21;100820.13;2215362;79;51542;-71
2023/05/11 05:32:36;;;;;;;;;;;;;;;21.51;61.01;100814.98;2240742;79;50058;-71
2023/05/11 05:35:37;;;;;;;;;;;;;;;21.57;60.87;100819.25;2239222;79;50431;-71
2023/05/11 05:38:39;;;;;;;;;;;;;;;21.62;60.77;100820.83;2238838;79;50650;-71
2023/05/11 05:41:41;;;;;;;;;;;;;;;21.66;60.69;100821.59;2248016;78;50398;-72
2023/05/11 05:44:43;;;;;;;;;;;;;;;21.73;60.60;100825.16;2246673;79;52536;-72
2023/05/11 05:47:44;;;;;;;;;;;;;;;21.83;60.44;100826.63;2236833;79;50439;-71
2023/05/11 05:50:46;;;;;;;;;;;;;;;21.86;60.44;100831.13;2249665;78;51494;-71
2023/05/11 05:53:48;;;;;;;;;;;;;;;21.96;60.46;100836.11;2257674;77;51459;-72
2023/05/11 05:56:50;;;;;;;;;;;;;;;22.00;60.18;100841.95;2249904;79;51338;-71
2023/05/11 05:59:52;;;;;;;;;;;;;;;22.05;60.14;100843.52;2257590;79;50538;-72
2023/05/11 06:02:53;;;;;;;;;;;;;;;22.12;59.95;100852.47;2256924;79;50763;-71
2023/05/11 06:05:55;;;;;;;;;;;;;;;22.22;59.77;100847.56;2257437;79;51463;-71
2023/05/11 06:08:57;;;;;;;;;;;;;;;22.28;59.60;100852.66;2198640;79;50924;-71
2023/05/11 06:11:58;;;;;;;;;;;;;;;22.32;59.50;100849.85;2222575;79;51414;-71
2023/05/11 06:15:00;;;;;;;;;;;;;;;22.37;59.36;100849.55;2257547;79;51533;-72
2023/05/11 06:18:01;;;;;;;;;;;;;;;22.40;59.03;100853.70;2257074;79;51471;-71
2023/05/11 06:21:03;;;;;;;;;;;;;;;22.42;59.22;100845.42;2214458;79;51439;-70
2023/05/11 06:24:05;;;;;;;;;;;;;;;22.45;59.12;100850.41;2257656;79;50295;-71
2023/05/11 06:27:06;;;;;;;;;;;;;;;22.49;59.13;100861.11;2256235;79;51512;-71
2023/05/11 06:30:08;;;;;;;;;;;;;;;22.48;59.18;100856.23;2244122;79;51504;-71
2023/05/11 06:33:10;;;;;;;;;;;;;;;22.52;59.16;100855.30;2193882;79;51568;-71
2023/05/11 06:36:11;;;;;;;;;;;;;;;22.53;59.16;100856.95;2243804;79;51543;-71
2023/05/11 06:39:13;;;;;;;;;;;;;;;22.55;59.08;100853.53;2243968;79;51536;-70
2023/05/11 06:42:14;;;;;;;;;;;;;;;22.56;58.94;100858.74;2244037;79;51580;-70
2023/05/11 06:45:16;;;;;;;;;;;;;;;22.58;58.91;100851.77;2194099;79;53938;-71
2023/05/11 06:48:18;;;;;;;;;;;;;;;22.59;58.79;100856.98;2217700;79;51510;-72
2023/05/11 06:51:20;;;;;;;;;;;;;;;22.59;58.82;100858.85;2217494;79;50680;-72
2023/05/11 06:54:22;;;;;;;;;;;;;;;22.58;58.78;100854.47;2218439;79;50301;-71
2023/05/11 06:57:24;;;;;;;;;;;;;;;22.59;58.71;100856.98;2243839;78;50307;-72
2023/05/11 07:00:25;;;;;;;;;;;;;;;22.60;58.59;100853.75;2244144;79;50741;-71
2023/05/11 07:03:27;;;;;;;;;;;;;;;22.60;58.58;100852.41;2244172;77;51412;-72
2023/05/11 07:06:28;;;;;;;;;;;;;;;22.59;58.57;100848.06;2217724;79;50307;-72
2023/05/11 07:09:30;;;;;;;;;;;;;;;22.60;58.51;100853.75;2194303;79;51244;-72
2023/05/11 07:12:32;;;;;;;;;;;;;;;22.59;58.45;100852.94;2217763;79;51489;-72
2023/05/11 07:15:33;;;;;;;;;;;;;;;22.60;58.36;100850.53;2217878;79;50102;-71
2023/05/11 07:18:35;;;;;;;;;;;;;;;22.61;58.31;100854.09;2215228;79;50258;-72
2023/05/11 07:21:36;;;;;;;;;;;;;;;22.60;58.26;100854.58;2234900;78;50082;-72
2023/05/11 07:24:38;;;;;;;;;;;;;;;22.60;58.21;100851.06;2217974;79;50592;-71
2023/05/11 07:27:39;;;;;;;;;;;;;;;22.60;58.14;100855.92;2243950;78;51242;-72
2023/05/11 07:30:41;;;;;;;;;;;;;;;22.61;58.10;100851.39;2244223;79;51583;-74
2023/05/11 07:33:43;;;;;;;;;;;;;;;22.59;58.11;100851.58;2233746;79;50984;-73
2023/05/11 07:36:45;;;;;;;;;;;;;;;22.59;58.03;100852.94;2244117;78;50272;-73
2023/05/11 07:39:46;;;;;;;;;;;;;;;22.60;58.01;100857.80;2218564;79;51558;-73
2023/05/11 07:42:48;;;;;;;;;;;;;;;22.58;58.01;100851.28;2217938;79;51523;-72
2023/05/11 07:45:50;;;;;;;;;;;;;;;22.59;57.92;100861.02;2193805;79;52242;-72
2023/05/11 07:48:51;;;;;;;;;;;;;;;;;;2217424;79;50623;-71
2023/05/11 07:51:52;;;;;;;;;;;;;;;22.57;57.98;100854.17;2219250;79;51511;-71
2023/05/11 07:54:54;;;;;;;;;;;;;;;22.56;57.98;100853.34;2181041;80;51429;-71
2023/05/11 07:57:55;;;;;;;;;;;;;;;22.54;57.97;100849.19;2205799;80;50397;-72
2023/05/11 08:00:57;;;;;;;;;;;;;;;22.54;57.93;100851.89;2158048;80;49716;-71
2023/05/11 08:03:59;;;;;;;;;;;;;;;22.52;57.89;100848.03;2180852;80;49980;-71
2023/05/11 08:07:01;;;;;;;;;;;;;;;22.51;57.87;100844.22;2180670;80;51468;-71
2023/05/11 08:10:02;;;;;;;;;;;;;;;22.50;57.96;100851.97;2206090;80;51478;-72
2023/05/11 08:13:04;;;;;;;;;;;;;;;22.47;57.95;100848.34;2157879;80;49581;-72
2023/05/11 08:16:06;;;;;;;;;;;;;;;22.47;57.95;100851.86;2181142;80;50736;-73
2023/05/11 08:19:07;;;;;;;;;;;;;;;22.49;57.98;100851.67;2208409;79;50113;-73
2023/05/11 08:22:08;;;;;;;;;;;;;;;;;;2244210;79;50542;-72
2023/05/11 08:25:10;;;;;;;;;;;;;;;22.45;57.91;100849.88;2221645;79;49716;-71
2023/05/11 08:28:12;;;;;;;;;;;;;;;22.43;57.87;100845.72;2243766;79;50370;-72
2023/05/11 08:31:13;;;;;;;;;;;;;;;22.42;57.94;100846.25;2242900;79;50641;-72
2023/05/11 08:34:15;;;;;;;;;;;;;;;22.42;57.88;100846.77;2227663;79;49941;-70
2023/05/11 08:37:16;;;;;;;;;;;;;;;22.40;57.89;100849.66;2242146;78;49574;-71
2023/05/11 08:40:18;;;;;;;;;;;;;;;22.37;57.95;100852.25;2227223;78;50395;-71
2023/05/11 08:43:20;;;;;;;;;;;;;;;22.37;57.88;100848.20;2249861;79;50397;-72
2023/05/11 08:46:23;;;;;;;;;;;;;;;22.36;57.88;100850.59;2249496;79;50315;-71
2023/05/11 08:49:24;;;;;;;;;;;;;;;22.35;57.88;100848.95;2212684;78;51801;-71
2023/05/11 08:52:30;;;;;;;;;;;;;;;22.34;57.86;100848.61;2218528;78;51477;-72
2023/05/11 08:55:29;;;;;;;;;;;;;;;22.33;57.85;100845.61;2202770;80;22841;-71
2023/05/11 08:58:31;;;;;;;;;;;;;;;22.30;57.91;100839.78;2202913;80;50252;-72
2023/05/11 09:01:32;;;;;;;;;;;;;;;22.31;57.91;100838.24;2204709;80;49509;-71
2023/05/11 09:04:34;;;;;;;;;;;;;;;22.30;57.81;100841.98;2203060;80;50302;-72
2023/05/11 09:07:36;;;;;;;;;;;;;;;22.28;57.88;100837.83;2192968;79;50171;-72
2023/05/11 09:10:37;;;;;;;;;;;;;;;22.25;57.87;100839.06;2212657;79;51500;-72
2023/05/11 09:13:39;;;;;;;;;;;;;;;22.24;57.91;100840.08;2204788;80;51505;-72
2023/05/11 09:16:41;;;;;;;;;;;;;;;22.20;58.04;100848.27;2203147;81;51572;-72
2023/05/11 09:19:58;;;;;;;;;;;;;;;22.19;58.10;100841.20;2203517;81;50725;-73
2023/05/11 09:23:00;;;;;;;;;;;;;;;22.19;57.98;100835.81;2203841;81;50120;-72
2023/05/11 09:26:02;;;;;;;;;;;;;;;22.18;57.94;100836.83;2181985;81;51007;-72
2023/05/11 09:29:03;;;;;;;;;;;;;;;22.18;57.78;100834.13;2214671;79;50358;-72
2023/05/11 09:32:05;;;;;;;;;;;;;;;22.13;57.78;100832.03;2247249;79;50246;-72
2023/05/11 09:35:08;;;;;;;;;;;;;;;22.13;57.83;100836.61;2245684;79;50671;-72
2023/05/11 09:38:11;;;;;;;;;;;;;;;22.11;57.86;100831.92;2212576;78;50229;-72
2023/05/11 09:41:12;;;;;;;;;;;;;;;22.10;57.86;100837.84;2249194;79;51575;-73
2023/05/11 09:44:14;;;;;;;;;;;;;;;22.08;57.97;100847.16;2252004;78;51525;-72
2023/05/11 09:47:16;;;;;;;;;;;;;;;22.08;58.00;100844.46;2253461;79;50685;-72
2023/05/11 09:50:18;;;;;;;;;;;;;;;22.07;58.04;100833.37;2253352;79;50104;-72
2023/05/11 09:53:19;;;;;;;;;;;;;;;22.05;58.06;100832.75;2252983;79;51329;-72
2023/05/11 09:56:21;;;;;;;;;;;;;;;22.05;58.03;100827.36;2253702;79;50731;-72
2023/05/11 09:59:40;;;;;;;;;;;;;;;22.03;58.00;100841.54;2249652;78;50343;-72
2023/05/11 10:02:41;;;;;;;;;;;;;;;22.02;57.98;100830.46;2264139;78;51222;-72
2023/05/11 10:05:45;;;;;;;;;;;;;;;22.00;58.01;100826.61;2250279;78;51671;-73
2023/05/11 10:08:46;;;;;;;;;;;;;;;21.99;58.00;100833.53;2248906;78;51480;-72
2023/05/11 10:11:48;;;;;;;;;;;;;;;22.01;57.91;100838.20;2250459;79;50243;-72
2023/05/11 10:14:50;;;;;;;;;;;;;;;22.00;57.88;100826.61;2242877;79;51163;-71
2023/05/11 10:17:53;;;;;;;;;;;;;;;21.99;57.86;100828.14;2249930;78;50656;-72
2023/05/11 10:20:55;;;;;;;;;;;;;;;21.97;57.93;100832.41;2249859;79;50133;-72
2023/05/11 10:23:56;;;;;;;;;;;;;;;21.96;57.90;100814.06;2250295;78;50371;-72
2023/05/11 10:26:58;;;;;;;;;;;;;;;21.98;57.92;100823.80;2250011;79;50345;-72
2023/05/11 10:30:00;;;;;;;;;;;;;;;21.94;58.01;100822.86;2251718;78;50051;-72
2023/05/11 10:33:03;;;;;;;;;;;;;;;21.94;58.04;100816.64;2250287;79;50333;-71
2023/05/11 10:36:05;;;;;;;;;;;;;;;21.93;58.00;100821.18;2250247;78;51557;-72
2023/05/11 10:39:07;;;;;;;;;;;;;;;21.93;57.97;100815.79;2236053;79;50316;-72
2023/05/11 10:42:19;;;;;;;;;;;;;;;21.94;57.81;100812.61;2163761;80;51236;-73
2023/05/11 10:45:21;;;;;;;;;;;;;;;21.95;57.84;100807.00;2211569;80;50294;-71
2023/05/11 10:48:28;;;;;;;;;;;;;;;21.94;57.84;100820.16;2211926;79;51580;-72
2023/05/11 10:51:40;;;;;;;;;;;;;;;21.95;57.81;100815.08;2211108;79;51554;-72
2023/05/11 10:54:43;;;;;;;;;;;;;;;21.94;57.72;100810.73;2189960;80;49592;-72
2023/05/11 10:57:46;;;;;;;;;;;;;;;21.93;57.59;100809.05;2210853;80;50368;-73
2023/05/11 11:00:56;;;;;;;;;;;;;;;21.92;57.82;100816.83;2211529;80;50312;-72
2023/05/11 11:04:04;;;;;;;;;;;;;;;21.91;57.87;100812.49;2211773;80;50688;-71
2023/05/11 11:07:06;;;;;;;;;;;;;;;21.92;57.81;100810.63;2215547;79;51126;-72
2023/05/11 11:10:08;;;;;;;;;;;;;;;21.93;57.88;100802.84;2229015;78;50322;-73
2023/05/11 11:13:11;;;;;;;;;;;;;;;21.93;57.85;100816.31;2251472;79;51509;-72
2023/05/11 11:16:13;;;;;;;;;;;;;;;21.93;57.85;100815.79;2251015;79;51553;-73
2023/05/11 11:19:31;;;;;;;;;;;;;;;21.92;57.87;100803.36;2246665;78;50909;-73
2023/05/11 11:22:37;;;;;;;;;;;;;;;21.92;57.83;100814.66;2251399;78;51558;-73
2023/05/11 11:25:52;;;;;;;;;;;;;;;21.93;57.77;100815.79;2251468;79;50460;-73
2023/05/11 11:28:56;;;;;;;;;;;;;;;21.93;57.84;100807.70;2251136;79;51546;-72
2023/05/11 11:32:16;;;;;;;;;;;;;;;21.91;57.88;100819.72;2245825;78;52865;-72
2023/05/11 11:35:36;;;;;;;;;;;;;;;21.88;57.86;100818.26;2251268;79;51653;-72
2023/05/11 11:38:39;;;;;;;;;;;;;;;21.88;57.90;100815.56;2232057;79;51555;-73
2023/05/11 11:41:41;;;;;;;;;;;;;;;21.84;58.01;100814.31;2241689;79;51547;-73
2023/05/11 11:44:43;;;;;;;;;;;;;;;21.85;58.00;100814.62;2229851;79;52727;-73
2023/05/11 11:47:46;;;;;;;;;;;;;;;21.85;57.96;100813.27;2217930;79;50437;-73
2023/05/11 11:50:48;;;;;;;;;;;;;;;21.81;58.00;100812.03;2243032;79;50284;-73
2023/05/11 11:53:51;;;;;;;;;;;;;;;21.78;58.07;100820.48;2244082;78;51626;-73
2023/05/11 11:56:53;;;;;;;;;;;;;;;21.80;58.07;100816.27;2205189;79;49537;-72
2023/05/11 11:59:55;;;;;;;;;;;;;;;21.84;57.98;100818.88;2218524;79;50219;-72
2023/05/11 12:02:57;;;;;;;;;;;;;;;21.82;57.96;100810.98;2244377;78;51545;-72
2023/05/11 12:06:00;;;;;;;;;;;;;;;21.82;57.92;100820.42;2244060;79;51504;-72
2023/05/11 12:09:03;;;;;;;;;;;;;;;21.86;57.81;100827.08;2237241;78;52521;-72
2023/05/11 12:12:05;;;;;;;;;;;;;;;21.89;57.80;100827.20;2205943;80;50681;-72
2023/05/11 12:15:08;;;;;;;;;;;;;;;21.88;57.82;100829.03;2206044;80;50477;-72
2023/05/11 12:18:12;;;;;;;;;;;;;;;21.89;57.68;100819.94;2180873;80;50582;-72
2023/05/11 12:21:15;;;;;;;;;;;;;;;21.88;57.76;100822.81;2201242;80;50909;-71
2023/05/11 12:24:16;;;;;;;;;;;;;;;21.87;57.77;100827.37;2205869;80;50648;-72
2023/05/11 12:27:18;;;;;;;;;;;;;;;21.84;57.81;100823.75;2180658;80;50723;-72
2023/05/11 12:30:24;;;;;;;;;;;;;;;21.84;57.85;100826.44;2181045;80;50688;-72
2023/05/11 12:33:26;;;;;;;;;;;;;;;21.84;57.84;100835.88;2205223;80;49651;-72
2023/05/11 12:36:28;;;;;;;;;;;;;;;21.85;57.82;100829.96;2210646;79;50677;-72
2023/05/11 12:39:30;;;;;;;;;;;;;;;21.88;57.76;100826.86;2234476;77;50181;-72
2023/05/11 12:42:31;;;;;;;;;;;;;;;21.89;57.70;100823.98;2199688;79;50063;-72
2023/05/11 12:45:33;;;;;;;;;;;;;;;21.82;57.82;100828.50;2221283;79;51557;-72
2023/05/11 12:48:34;;;;;;;;;;;;;;;21.84;57.83;100829.66;2221022;79;51556;-72
2023/05/11 12:51:49;;;;;;;;;;;;;;;21.84;57.77;100831.83;2249655;79;51597;-72
2023/05/11 12:54:51;;;;;;;;;;;;;;;21.83;57.73;100827.98;2246049;78;51575;-72
2023/05/11 12:57:53;;;;;;;;;;;;;;;21.83;57.63;100826.11;2250083;77;49619;-72
2023/05/11 13:00:58;;;;;;;;;;;;;;;21.83;57.67;100831.49;2248833;79;51641;-73
2023/05/11 13:04:00;;;;;;;;;;;;;;;21.87;57.67;100826.03;2252624;77;50675;-73
2023/05/11 13:07:02;;;;;;;;;;;;;;;21.91;57.67;100827.31;2262804;77;51530;-72
2023/05/11 13:10:03;;;;;;;;;;;;;;;21.87;57.89;100826.03;2260512;77;49687;-72
2023/05/11 13:13:04;;;;;;;;;;;;;;;;;;2241565;77;50325;-72
2023/05/11 13:16:06;;;;;;;;;;;;;;;21.85;57.77;100813.80;2248065;78;50342;-72
2023/05/11 13:19:08;;;;;;;;;;;;;;;21.83;57.86;100824.76;2254919;77;49979;-72
2023/05/11 13:22:10;;;;;;;;;;;;;;;21.88;57.76;100824.98;2228773;78;51520;-72
2023/05/11 13:25:13;;;;;;;;;;;;;;;21.88;57.61;100826.86;2260089;77;51160;-72
2023/05/11 13:28:15;;;;;;;;;;;;;;;21.90;57.57;100826.97;2244547;78;51423;-72
2023/05/11 13:31:19;;;;;;;;;;;;;;;21.90;58.00;100817.55;2287207;77;51594;-72
2023/05/11 13:34:21;;;;;;;;;;;;;;;21.89;57.99;100820.45;2279412;77;50245;-72
2023/05/11 13:37:22;;;;;;;;;;;;;;;21.90;58.05;100814.85;2267481;77;49579;-73
2023/05/11 13:40:24;;;;;;;;;;;;;;;21.92;57.99;100817.36;2245680;78;50354;-71
2023/05/11 13:43:26;;;;;;;;;;;;;;;21.91;57.97;100811.14;2249893;79;50296;-71
2023/05/11 13:46:27;;;;;;;;;;;;;;;21.91;58.00;100817.88;2249834;78;50381;-71
2023/05/11 13:49:29;;;;;;;;;;;;;;;21.90;58.02;100818.89;2246898;77;52394;-71
2023/05/11 13:52:31;;;;;;;;;;;;;;;21.89;58.05;100816.42;2249510;79;51373;-71
2023/05/11 13:55:32;;;;;;;;;;;;;;;21.87;58.08;100813.91;2249902;79;51415;-71
2023/05/11 13:58:34;;;;;;;;;;;;;;;21.90;58.05;100812.68;2249476;78;50535;-72
2023/05/11 14:01:36;;;;;;;;;;;;;;;21.92;58.02;100816.83;2251402;78;50033;-71
2023/05/11 14:04:39;;;;;;;;;;;;;;;21.91;57.97;100817.88;2245338;78;50179;-71
2023/05/11 14:07:40;;;;;;;;;;;;;;;21.90;58.03;100821.59;2233603;78;51574;-72
2023/05/11 14:10:43;;;;;;;;;;;;;;;21.90;57.99;100820.23;2223901;79;51531;-71
2023/05/11 14:13:45;;;;;;;;;;;;;;;21.91;57.97;100814.33;2245956;78;49879;-71
2023/05/11 14:16:46;;;;;;;;;;;;;;;21.88;58.05;100821.47;2245254;78;52147;-70
2023/05/11 14:19:48;;;;;;;;;;;;;;;21.88;58.05;100816.91;2250106;79;50760;-71
2023/05/11 14:22:49;;;;;;;;;;;;;;;21.86;58.13;100812.75;2245646;78;50619;-72
2023/05/11 14:25:51;;;;;;;;;;;;;;;21.85;58.16;100810.58;2251724;78;51122;-71
2023/05/11 14:28:53;;;;;;;;;;;;;;;21.90;58.10;100809.98;2249950;79;51478;-72
2023/05/11 14:31:55;;;;;;;;;;;;;;;21.88;58.27;100809.34;2246229;78;51492;-73
2023/05/11 14:34:56;;;;;;;;;;;;;;;21.89;58.32;100810.51;2250129;79;51532;-72
2023/05/11 14:37:58;;;;;;;;;;;;;;;21.95;57.99;100809.69;2237948;78;52383;-72
2023/05/11 14:41:00;;;;;;;;;;;;;;;21.98;57.96;100807.11;2245673;79;51494;-71
2023/05/11 14:44:02;;;;;;;;;;;;;;;21.97;57.98;100796.03;2244215;79;50442;-72
2023/05/11 14:47:04;;;;;;;;;;;;;;;21.95;58.21;100802.95;2217356;79;50735;-72
2023/05/11 14:50:06;;;;;;;;;;;;;;;22.00;58.03;100802.87;2229279;79;52700;-72
2023/05/11 14:53:08;;;;;;;;;;;;;;;22.01;57.89;100804.00;2244094;79;50493;-73
2023/05/11 14:56:10;;;;;;;;;;;;;;;21.99;58.06;100806.09;2218163;79;51595;-72
2023/05/11 14:59:11;;;;;;;;;;;;;;;22.02;58.00;100800.82;2244182;79;51468;-71
2023/05/11 15:02:13;;;;;;;;;;;;;;;22.04;57.91;100801.42;2244218;79;51576;-70
2023/05/11 15:05:15;;;;;;;;;;;;;;;22.02;57.95;100803.52;2244180;79;51418;-71
2023/05/11 15:08:16;;;;;;;;;;;;;;;22.03;57.92;100804.64;2220164;79;50253;-71
2023/05/11 15:11:17;;;;;;;;;;;;;;;;;;2216666;79;50626;-70
2023/05/11 15:14:19;;;;;;;;;;;;;;;22.06;57.78;100802.06;2189752;80;51733;-71
2023/05/11 15:17:20;;;;;;;;;;;;;;;22.07;57.77;100810.48;2211760;79;50299;-70
2023/05/11 15:20:22;;;;;;;;;;;;;;;22.08;57.86;100813.47;2211374;80;50757;-72
2023/05/11 15:23:24;;;;;;;;;;;;;;;22.10;57.89;100814.11;2186493;80;51659;-71
2023/05/11 15:26:25;;;;;;;;;;;;;;;22.14;57.77;100822.08;2163432;80;50993;-71
2023/05/11 15:29:27;;;;;;;;;;;;;;;22.15;57.88;100815.67;2186537;80;50633;-71
2023/05/11 15:32:28;;;;;;;;;;;;;;;22.19;57.79;100819.64;2211817;79;51401;-72
2023/05/11 15:35:30;;;;;;;;;;;;;;;22.16;57.99;100815.98;2211714;80;50424;-71
2023/05/11 15:38:32;;;;;;;;;;;;;;;22.18;57.90;100828.22;2222302;79;49610;-72